Auburn Hills, MI

12:26 PM EDT on May 24, 2015 (GMT -0400)
2 mi SE of the Palace | | Change Station
CLOSE
Current Station
Personal Weather Station
Location: Auburn Hills, MI
Elevation: 950 ft
Nearby Weather Stations

Elev 950 ft 42.67 °N, 83.23 °W | Updated 5 seconds ago

Mostly Cloudy
Mostly Cloudy
75.5 °F
Feels Like 78 °F
N
0.0
Wind Variable Wind from SSW
Gusts 2.4 mph

Today
High -- | Low -- °F
--% Chance of Precip.
Yesterday
High -- | Low -- °F
Precip. -- in
6:02 AM 8:57 PM
Waxing Crescent, 40% visible
Pressure 30.24 in
Visibility 10.0 miles
Clouds Scattered Clouds 13000 ft
Overcast 19000 ft
Heat Index 78 °F
Dew Point 48 °F
Humidity 37%
Rainfall 0.00 in
Snow Depth Not available.
UV 3 out of 12
Pollen 9.40 out of 12
Air Quality Not available.
Flu Activity Sporadic
METAR KPTK 241553Z 22008KT 10SM SCT130 OVC190 24/09 A3025 RMK AO2 SLP238 T02390094

More Conditions Fewer Conditions

Pressure 30.24 in
Visibility 10.0 miles
Clouds Scattered Clouds 13000 ft
Overcast 19000 ft
Heat Index 78 °F
Dew Point 48 °F
Humidity 37%
Rainfall 0.00 in
Snow Depth Not available.
UV 3 out of 12
Pollen 9.40 out of 12
Air Quality Not available.
Flu Activity Sporadic
METAR KPTK 241553Z 22008KT 10SM SCT130 OVC190 24/09 A3025 RMK AO2 SLP238 T02390094

More Conditions Fewer Conditions

10-Day Weather Forecast

Almanac

Astronomy

May. 24, 2015 Rise Set
Actual Time
Civil Twilight
Nautical Twilight
Astronomical Twilight
Moon
Length of Visible Light
Length of Day
Tomorrow will be .
, % of the Moon is Illuminated

Today's Extremes

State Highs State Lows

Community

WunderPhotos

Upload Photos

1,823,781 photos uploaded!

WunderBlogs® & News

Nearby

Air Quality

  Air Quality AQ Index Pollutant
Not available.

Snow Depth

Station Depth Elevation

Earthquake Activity

City Distance Mag. Time & Date
Minimum magnitude displayed is 2.5.

Coastal Water Temperatures

Place Temperature

Stations

Nearby Weather Stations

Station Location Temp. Windchill Dew Point Humidity Wind Precip. Elev Updated Type